VTF weather

Vatulele Airport
Vatulele, Western, Fiji

Public forecast

Using degrees Celsius for public forecast. Weather courtesy of forecast.io.

METAR (pilot weather report)

Report is more than 6 hours old.

Closest report is Vunisea Airport, 44.0 nm (81.6 km) SE. Retrieved 2019/09/16 08:00 UTC (16 hours ago):

NFKD 160800Z AUTO 12014KT //// 22/17 Q1020

TAF (pilot weather forecast)

Closest forecast is Nadi International Airport, 46.8 nm (86.7 km) NNW. Retrieved 2019/09/16 18:00 UTC (6 hours ago):

TAF NFFN 161703Z 1618/1718 08010KT 9999 FEW030 SCT050